Time;durP1;ratioP1;P1;durP2;ratioP2;P2;SDS_P1;SDS_P2;PMS_P1;PMS_P2;Temp;Humidity;BMP_temperature;BMP_pressure;BME280_temperature;BME280_humidity;BME280_pressure;Samples;Min_cycle;Max_cycle;Signal;HPM_P1;HPM_P2
2022/08/16 00:01:00;;;;;;;15.55;14.05;;;20.30;1.00;;;;;;4994499;28;20034;-84
2022/08/16 00:03:26;;;;;;;15.68;14.15;;;20.30;92.40;;;;;;5013536;28;20084;-83
2022/08/16 00:05:51;;;;;;;14.15;12.75;;;20.30;99.90;;;;;;4992589;28;20034;-86
2022/08/16 00:08:18;;;;;;;16.40;14.48;;;20.20;1.00;;;;;;5030190;28;20433;-86
2022/08/16 00:10:44;;;;;;;17.50;15.60;;;20.30;3.50;;;;;;5019761;28;20048;-85
2022/08/16 00:13:11;;;;;;;16.35;14.75;;;20.20;99.90;;;;;;5016763;28;20041;-86
2022/08/16 00:15:44;;;;;;;16.70;15.10;;;20.20;99.90;;;;;;4990433;28;20049;-84
2022/08/16 00:18:10;;;;;;;19.17;16.33;;;20.20;99.90;;;;;;5014414;28;20571;-85
2022/08/16 00:20:38;;;;;;;18.00;14.70;;;20.20;99.90;;;;;;5025915;28;20372;-85
2022/08/16 00:23:04;;;;;;;17.42;15.63;;;20.20;99.90;;;;;;5008952;28;20528;-85
2022/08/16 00:25:30;;;;;;;17.15;15.52;;;20.20;99.90;;;;;;5013751;28;20121;-85
2022/08/16 00:27:56;;;;;;;18.10;15.65;;;20.20;99.90;;;;;;5011140;28;20216;-85
2022/08/16 00:30:23;;;;;;;16.92;14.85;;;20.20;99.90;;;;;;5007854;28;20041;-85
2022/08/16 00:32:51;;;;;;;18.33;16.48;;;20.20;99.90;;;;;;5017787;28;20042;-85
2022/08/16 00:35:24;;;;;;;17.48;15.77;;;20.20;1.00;;;;;;5013179;28;20124;-84
2022/08/16 00:37:50;;;;;;;17.50;15.77;;;20.10;1.00;;;;;;5004403;28;20402;-86
2022/08/16 00:40:35;;;;;;;17.90;16.00;;;20.10;1.00;;;;;;5014791;28;20043;-85
2022/08/16 00:43:03;;;;;;;18.50;16.63;;;20.10;1.00;;;;;;5018314;28;20061;-83
2022/08/16 00:45:55;;;;;;;17.50;16.00;;;20.10;1.00;;;;;;5038857;28;20053;-86
2022/08/16 00:48:23;;;;;;;19.75;17.33;;;20.10;99.90;;;;;;5013123;28;20229;-84
2022/08/16 00:50:49;;;;;;;18.38;16.67;;;20.10;1.00;;;;;;4993919;28;20506;-85
2022/08/16 00:53:16;;;;;;;19.42;17.42;;;20.10;1.00;;;;;;5007914;28;20125;-85
2022/08/16 00:55:47;;;;;;;20.30;18.13;;;20.10;1.00;;;;;;4992190;28;20114;-85
2022/08/16 00:58:15;;;;;;;19.70;17.55;;;20.10;1.00;;;;;;5017488;28;20910;-85
2022/08/16 01:00:42;;;;;;;19.58;17.42;;;20.10;1.00;;;;;;4986705;28;20090;-85
2022/08/16 01:03:12;;;;;;;20.30;18.30;;;20.10;1.00;;;;;;5014910;28;20069;-85
2022/08/16 01:05:38;;;;;;;21.10;19.00;;;20.10;1.00;;;;;;5007896;28;20456;-85
2022/08/16 01:08:06;;;;;;;19.75;17.75;;;20.10;1.00;;;;;;5031959;28;20029;-85
2022/08/16 01:10:33;;;;;;;22.13;19.08;;;20.10;1.00;;;;;;5012466;28;20124;-85
2022/08/16 01:13:17;;;;;;;20.50;18.50;;;20.10;1.00;;;;;;5018501;28;20115;-85
2022/08/16 01:15:46;;;;;;;19.98;17.95;;;20.10;1.00;;;;;;5005815;28;20511;-85
2022/08/16 01:18:17;;;;;;;23.13;20.75;;;20.10;1.00;;;;;;5004252;28;20482;-84
2022/08/16 01:20:59;;;;;;;18.50;16.73;;;20.10;1.00;;;;;;5035845;28;20400;-85
2022/08/16 01:23:52;;;;;;;20.90;18.70;;;20.00;99.90;;;;;;5018405;28;20142;-85
2022/08/16 01:26:19;;;;;;;21.27;19.08;;;20.00;1.00;;;;;;5020706;28;20033;-85
2022/08/16 01:28:46;;;;;;;22.58;20.27;;;20.00;1.00;;;;;;5031425;28;20041;-85
2022/08/16 01:31:13;;;;;;;22.33;20.15;;;20.00;1.00;;;;;;5016621;28;21292;-85
2022/08/16 01:33:39;;;;;;;17.67;15.95;;;19.90;1.00;;;;;;5034327;28;20501;-84
2022/08/16 01:36:08;;;;;;;22.00;19.77;;;19.90;99.90;;;;;;5018269;28;20049;-85
2022/08/16 01:38:40;;;;;;;21.85;19.60;;;19.90;1.00;;;;;;5020924;28;20164;-85
2022/08/16 01:41:13;;;;;;;22.00;19.65;;;19.90;1.00;;;;;;5009339;28;20064;-85
2022/08/16 01:43:43;;;;;;;20.60;17.40;;;19.80;34.20;;;;;;5032364;28;20049;-85
2022/08/16 01:46:27;;;;;;;20.52;18.42;;;19.80;1.00;;;;;;4991589;28;20485;-85
2022/08/16 01:48:56;;;;;;;20.85;18.85;;;19.80;1.00;;;;;;5005527;28;20139;-85
2022/08/16 01:51:24;;;;;;;19.77;17.85;;;19.80;99.90;;;;;;4994926;28;20469;-84
2022/08/16 01:53:50;;;;;;;22.60;19.60;;;19.80;99.90;;;;;;5012579;28;20383;-84
2022/08/16 01:56:16;;;;;;;20.02;17.60;;;19.80;1.00;;;;;;5031430;28;20119;-85
2022/08/16 01:58:42;;;;;;;21.75;19.70;;;19.70;99.90;;;;;;5028389;28;20037;-85
2022/08/16 02:01:08;;;;;;;17.30;15.65;;;19.70;99.90;;;;;;5007516;28;20033;-85
2022/08/16 02:03:33;;;;;;;21.33;19.23;;;19.60;99.90;;;;;;4986789;28;20057;-84
2022/08/16 02:05:59;;;;;;;21.83;19.52;;;19.70;99.90;;;;;;4998952;28;20061;-85
2022/08/16 02:08:25;;;;;;;21.90;19.90;;;19.60;99.90;;;;;;4993258;28;20049;-84
2022/08/16 02:10:53;;;;;;;21.52;19.27;;;19.60;99.90;;;;;;4990791;28;20137;-85
2022/08/16 02:13:19;;;;;;;22.02;19.73;;;19.60;99.90;;;;;;5016520;28;20042;-85
2022/08/16 02:15:45;;;;;;;20.55;18.45;;;19.60;99.90;;;;;;4987005;28;20445;-86
2022/08/16 02:18:11;;;;;;;22.50;20.17;;;19.60;99.90;;;;;;5002294;28;20132;-85
2022/08/16 02:20:38;;;;;;;23.63;21.13;;;19.50;99.90;;;;;;5032718;28;20132;-84
2022/08/16 02:23:06;;;;;;;24.17;21.52;;;19.50;99.90;;;;;;5008140;28;20046;-84
2022/08/16 02:25:32;;;;;;;22.67;20.48;;;19.50;1.00;;;;;;5018845;28;20091;-85
2022/08/16 02:27:58;;;;;;;23.80;19.65;;;19.50;99.90;;;;;;5009917;28;20045;-85
2022/08/16 02:30:27;;;;;;;22.58;20.38;;;19.50;99.90;;;;;;5003427;28;20140;-85
2022/08/16 02:32:53;;;;;;;22.25;19.98;;;19.60;99.90;;;;;;5029207;28;20435;-85
2022/08/16 02:35:19;;;;;;;23.45;21.00;;;19.60;99.90;;;;;;5001975;28;20038;-85
2022/08/16 02:37:45;;;;;;;25.65;21.65;;;19.60;99.90;;;;;;4991763;28;20445;-83
2022/08/16 02:40:12;;;;;;;20.77;18.65;;;19.50;99.90;;;;;;4989122;28;20041;-84
2022/08/16 02:42:38;;;;;;;22.13;19.83;;;19.60;99.90;;;;;;5033168;28;20118;-85
2022/08/16 02:45:05;;;;;;;24.40;21.85;;;19.60;99.90;;;;;;5020622;28;20033;-84
2022/08/16 02:47:30;;;;;;;23.60;21.23;;;19.50;99.90;;;;;;5005818;28;20072;-85
2022/08/16 02:49:56;;;;;;;21.75;19.45;;;19.50;99.90;;;;;;4991105;28;20038;-84
2022/08/16 02:52:22;;;;;;;23.20;20.80;;;19.50;99.90;;;;;;5032937;28;20041;-84
2022/08/16 02:54:48;;;;;;;21.83;19.63;;;19.50;99.90;;;;;;5007203;28;20044;-84
2022/08/16 02:57:14;;;;;;;22.13;19.92;;;19.50;99.90;;;;;;5033449;28;20406;-85
2022/08/16 02:59:41;;;;;;;24.02;20.88;;;19.50;99.90;;;;;;4990893;28;20117;-84
2022/08/16 03:02:09;;;;;;;24.10;21.60;;;19.50;99.90;;;;;;4986771;28;20062;-84
2022/08/16 03:04:35;;;;;;;21.70;19.63;;;19.50;99.90;;;;;;5006677;28;20452;-85
2022/08/16 03:07:01;;;;;;;22.52;20.33;;;19.50;99.90;;;;;;4994362;28;20436;-85
2022/08/16 03:09:27;;;;;;;25.83;23.08;;;19.50;99.90;;;;;;5008066;28;20420;-85
2022/08/16 03:11:53;;;;;;;22.48;20.20;;;19.40;99.90;;;;;;4993274;28;20488;-84
2022/08/16 03:14:18;;;;;;;21.60;19.55;;;19.40;99.90;;;;;;4991874;28;20033;-84
2022/08/16 03:16:44;;;;;;;25.70;21.75;;;19.30;99.90;;;;;;4991816;28;20431;-85
2022/08/16 03:19:09;;;;;;;21.60;19.60;;;19.20;99.90;;;;;;5024476;28;20077;-85
2022/08/16 03:21:36;;;;;;;23.85;21.42;;;19.10;99.90;;;;;;4989167;28;20057;-84
2022/08/16 03:24:02;;;;;;;26.25;21.98;;;19.10;99.90;;;;;;5039945;28;20041;-84
2022/08/16 03:26:28;;;;;;;24.02;21.42;;;19.10;99.90;;;;;;5028211;28;20523;-85
2022/08/16 03:28:54;;;;;;;25.05;22.45;;;19.00;99.90;;;;;;5016026;28;20056;-85
2022/08/16 03:31:20;;;;;;;25.77;23.02;;;18.90;99.90;;;;;;4992993;28;20037;-84
2022/08/16 03:33:45;;;;;;;25.35;22.88;;;18.80;99.90;;;;;;5009031;28;20045;-86
2022/08/16 03:36:11;;;;;;;23.58;21.02;;;18.80;99.90;;;;;;5040836;28;20496;-85
2022/08/16 03:38:37;;;;;;;25.98;22.65;;;18.80;99.90;;;;;;5012788;28;20046;-85
2022/08/16 03:41:04;;;;;;;23.40;21.00;;;18.80;99.90;;;;;;5013592;28;20073;-85
2022/08/16 03:43:30;;;;;;;27.40;24.05;;;18.60;99.90;;;;;;5037152;28;20127;-84
2022/08/16 03:45:56;;;;;;;26.17;23.45;;;18.60;99.90;;;;;;5010353;28;20037;-85
2022/08/16 03:48:25;;;;;;;26.23;23.48;;;18.60;1.00;;;;;;5011885;28;20463;-85
2022/08/16 03:50:51;;;;;;;26.40;23.75;;;18.50;1.00;;;;;;5019951;28;20048;-84
2022/08/16 03:53:16;;;;;;;24.17;21.77;;;18.60;1.00;;;;;;5016475;28;20034;-85
2022/08/16 03:55:42;;;;;;;26.13;22.20;;;18.50;1.00;;;;;;5019353;28;20170;-86
2022/08/16 03:58:08;;;;;;;26.70;23.75;;;18.50;1.00;;;;;;5031607;28;20045;-84
2022/08/16 04:00:34;;;;;;;25.77;23.10;;;18.50;1.00;;;;;;5005924;28;20041;-85
2022/08/16 04:03:05;;;;;;;26.85;23.95;;;18.50;1.00;;;;;;5020295;28;20058;-85
2022/08/16 04:05:34;;;;;;;24.83;22.38;;;18.50;1.00;;;;;;5009890;28;20459;-85
2022/08/16 04:08:00;;;;;;;26.35;23.65;;;18.40;1.00;;;;;;4991440;28;20052;-85
2022/08/16 04:10:26;;;;;;;27.00;23.92;;;18.40;1.00;;;;;;4987028;28;20049;-85
2022/08/16 04:12:52;;;;;;;23.13;20.73;;;18.30;1.00;;;;;;5026756;28;20592;-85
2022/08/16 04:15:17;;;;;;;27.90;23.48;;;18.30;99.90;;;;;;5005724;28;20037;-84
2022/08/16 04:17:43;;;;;;;28.02;22.60;;;18.20;99.90;;;;;;5016556;28;20121;-85
2022/08/16 04:20:10;;;;;;;24.92;22.42;;;18.20;99.90;;;;;;5028566;28;20514;-85
2022/08/16 04:22:37;;;;;;;24.63;22.17;;;18.10;99.90;;;;;;5029838;28;20470;-86
2022/08/16 04:25:04;;;;;;;21.88;19.75;;;18.10;99.90;;;;;;4994526;28;20042;-85
2022/08/16 04:27:30;;;;;;;24.02;21.52;;;18.00;99.90;;;;;;5012041;28;20422;-85
2022/08/16 04:29:56;;;;;;;24.63;22.05;;;18.00;99.90;;;;;;5026269;28;20040;-85
2022/08/16 04:32:22;;;;;;;25.33;22.67;;;18.00;1.00;;;;;;5029256;28;20041;-86
2022/08/16 04:34:48;;;;;;;26.08;23.38;;;18.00;99.90;;;;;;5003626;28;20056;-85
2022/08/16 04:37:14;;;;;;;24.58;22.17;;;18.00;1.00;;;;;;5007859;28;20049;-86
2022/08/16 04:39:40;;;;;;;23.52;21.00;;;17.90;1.00;;;;;;5014715;28;20026;-84
2022/08/16 04:42:05;;;;;;;27.98;23.77;;;17.90;99.90;;;;;;5006823;28;20034;-85
2022/08/16 04:44:32;;;;;;;25.60;22.98;;;18.00;1.00;;;;;;5037860;28;20033;-85
2022/08/16 04:46:58;;;;;;;30.52;26.20;;;17.90;1.00;;;;;;5013083;28;20041;-86
2022/08/16 04:49:25;;;;;;;24.95;22.42;;;18.00;1.00;;;;;;5031299;28;20030;-85
2022/08/16 04:51:51;;;;;;;26.90;23.13;;;17.90;99.90;;;;;;4992153;28;20046;-85
2022/08/16 04:54:17;;;;;;;25.98;23.10;;;18.00;1.00;;;;;;5027866;28;20037;-85
2022/08/16 04:56:43;;;;;;;27.45;23.63;;;18.00;1.00;;;;;;5024922;28;20038;-88
2022/08/16 04:59:09;;;;;;;25.80;22.67;;;18.10;99.90;;;;;;5024282;28;20163;-85
2022/08/16 05:01:36;;;;;;;28.55;23.20;;;18.10;99.90;;;;;;5028127;28;20037;-84
2022/08/16 05:04:02;;;;;;;26.98;24.00;;;18.20;1.00;;;;;;5005772;28;20475;-85
2022/08/16 05:06:28;;;;;;;25.70;23.10;;;18.20;99.90;;;;;;5007599;28;20048;-85
2022/08/16 05:08:54;;;;;;;28.45;25.45;;;18.20;99.90;;;;;;5013111;28;20095;-85
2022/08/16 05:11:21;;;;;;;26.63;23.80;;;18.30;1.00;;;;;;5032306;28;20069;-85
2022/08/16 05:13:48;;;;;;;30.27;24.80;;;18.30;1.00;;;;;;5026892;28;20046;-85
2022/08/16 05:16:23;;;;;;;25.35;22.65;;;18.40;1.00;;;;;;5030277;28;20045;-85
2022/08/16 05:18:51;;;;;;;26.65;23.88;;;18.50;99.90;;;;;;4993277;28;20037;-85
2022/08/16 05:21:17;;;;;;;25.15;22.42;;;18.60;99.90;;;;;;4984993;28;20508;-86
2022/08/16 05:23:43;;;;;;;27.08;24.13;;;18.60;99.90;;;;;;5000605;28;20045;-86
2022/08/16 05:26:08;;;;;;;29.60;25.30;;;18.70;99.90;;;;;;5029939;28;20034;-85
2022/08/16 05:28:34;;;;;;;30.10;24.13;;;18.80;99.90;;;;;;5007413;28;20494;-85
2022/08/16 05:31:00;;;;;;;27.13;23.52;;;18.90;99.90;;;;;;5007339;28;20037;-85
2022/08/16 05:33:26;;;;;;;30.13;23.48;;;18.90;99.90;;;;;;4994213;28;20061;-85
2022/08/16 05:35:52;;;;;;;29.80;23.95;;;19.00;99.90;;;;;;5040774;28;20497;-85
2022/08/16 05:38:18;;;;;;;26.35;22.88;;;19.10;99.90;;;;;;5007450;28;20029;-86
2022/08/16 05:40:44;;;;;;;27.77;23.75;;;19.20;99.90;;;;;;5012564;28;20793;-85
2022/08/16 05:43:09;;;;;;;29.55;23.50;;;19.30;99.90;;;;;;4993437;28;20549;-85
2022/08/16 05:45:35;;;;;;;25.52;22.85;;;19.30;99.90;;;;;;4993818;28;20132;-85
2022/08/16 05:48:01;;;;;;;26.85;22.42;;;19.40;13.50;;;;;;5020294;28;20104;-85
2022/08/16 05:50:27;;;;;;;24.60;21.50;;;19.40;2.70;;;;;;5017250;28;20038;-86
2022/08/16 05:52:52;;;;;;;24.58;21.98;;;19.40;1.00;;;;;;5009769;28;20178;-84
2022/08/16 05:55:18;;;;;;;25.45;22.75;;;19.60;1.00;;;;;;5007275;28;20056;-85
2022/08/16 05:57:46;;;;;;;24.23;21.85;;;19.70;1.00;;;;;;5012303;28;20042;-85
2022/08/16 06:00:13;;;;;;;25.83;22.13;;;19.70;99.90;;;;;;4993631;28;20572;-85
2022/08/16 06:02:40;;;;;;;26.52;21.85;;;19.90;99.90;;;;;;4996461;28;20514;-85
2022/08/16 06:05:07;;;;;;;24.75;22.10;;;19.80;99.90;;;;;;5010024;28;20735;-85
2022/08/16 06:07:33;;;;;;;25.15;22.45;;;20.00;99.90;;;;;;4993333;28;20112;-85
2022/08/16 06:10:00;;;;;;;24.63;22.05;;;20.00;99.90;;;;;;5012332;28;20532;-85
2022/08/16 06:12:27;;;;;;;24.65;22.23;;;20.20;99.90;;;;;;5021515;28;20437;-86
2022/08/16 06:14:57;;;;;;;22.88;20.48;;;20.40;99.90;;;;;;5023294;28;20045;-86
2022/08/16 06:17:23;;;;;;;23.27;20.85;;;20.50;99.90;;;;;;5039435;28;20687;-85
2022/08/16 06:19:49;;;;;;;22.55;20.25;;;20.60;99.90;;;;;;5026567;28;20069;-85
2022/08/16 06:22:14;;;;;;;21.95;19.65;;;20.70;94.90;;;;;;5003184;28;20120;-85
2022/08/16 06:24:40;;;;;;;22.08;18.90;;;20.90;1.00;;;;;;5016456;28;20254;-84
2022/08/16 06:27:06;;;;;;;19.90;17.85;;;20.90;1.00;;;;;;4992763;28;20397;-85
2022/08/16 06:29:32;;;;;;;19.33;17.38;;;21.00;99.90;;;;;;5040426;28;20083;-85
2022/08/16 06:31:57;;;;;;;21.25;18.15;;;20.90;99.90;;;;;;5041415;28;20068;-84
2022/08/16 06:34:24;;;;;;;18.65;16.52;;;20.90;99.90;;;;;;5023912;28;20038;-85
2022/08/16 06:36:50;;;;;;;19.08;16.35;;;20.70;99.90;;;;;;5033769;28;20043;-84
2022/08/16 06:39:16;;;;;;;19.58;16.85;;;20.70;99.90;;;;;;5035487;28;20068;-85
2022/08/16 06:41:42;;;;;;;19.02;17.02;;;20.70;99.90;;;;;;5024772;28;20367;-85
2022/08/16 06:44:08;;;;;;;21.58;16.60;;;20.60;99.90;;;;;;5022680;28;20709;-85
2022/08/16 06:46:36;;;;;;;19.88;17.80;;;20.80;99.90;;;;;;4985603;28;20030;-84
2022/08/16 06:49:05;;;;;;;22.02;17.40;;;21.00;99.90;;;;;;5026276;28;20049;-85
2022/08/16 06:51:32;;;;;;;19.10;17.20;;;21.10;99.90;;;;;;5015703;28;20037;-84
2022/08/16 06:53:59;;;;;;;19.85;17.73;;;21.20;99.90;;;;;;5025874;28;20947;-84
2022/08/16 06:56:24;;;;;;;18.70;16.42;;;21.30;70.80;;;;;;4991850;28;20519;-85
2022/08/16 06:58:51;;;;;;;18.70;16.67;;;21.50;75.40;;;;;;5022269;28;20045;-84
2022/08/16 07:01:17;;;;;;;18.42;16.50;;;21.60;89.80;;;;;;4985919;28;20030;-85
2022/08/16 07:03:43;;;;;;;18.48;16.42;;;21.70;1.00;;;;;;4983191;28;20050;-86
2022/08/16 07:06:10;;;;;;;20.13;17.20;;;21.80;1.00;;;;;;4991278;28;20108;-84
2022/08/16 07:08:36;;;;;;;18.50;16.60;;;21.90;1.00;;;;;;5015912;28;20118;-85
2022/08/16 07:11:02;;;;;;;18.58;16.08;;;22.00;99.90;;;;;;4989459;28;20566;-84
2022/08/16 07:13:29;;;;;;;17.77;15.88;;;22.10;99.90;;;;;;5012707;28;20038;-86
2022/08/16 07:15:56;;;;;;;18.27;16.40;;;22.10;99.90;;;;;;5015087;28;20069;-84
2022/08/16 07:18:25;;;;;;;18.63;16.63;;;22.20;99.90;;;;;;5001064;28;20053;-85
2022/08/16 07:20:52;;;;;;;17.95;16.08;;;22.30;99.90;;;;;;5003230;28;20040;-85
2022/08/16 07:23:18;;;;;;;20.10;17.33;;;22.40;99.90;;;;;;5028940;28;20537;-85
2022/08/16 07:25:45;;;;;;;19.10;17.10;;;22.40;99.90;;;;;;5014297;28;20123;-85
2022/08/16 07:28:15;;;;;;;19.23;17.10;;;22.40;99.90;;;;;;5029037;28;20555;-85
2022/08/16 07:30:41;;;;;;;18.67;16.70;;;22.50;99.90;;;;;;5031047;28;20033;-84
2022/08/16 07:33:08;;;;;;;18.42;15.85;;;22.60;99.90;;;;;;5024908;28;20124;-86
2022/08/16 07:35:34;;;;;;;17.33;15.35;;;22.60;99.90;;;;;;4985671;28;20065;-85
2022/08/16 07:38:00;;;;;;;17.52;14.77;;;22.70;99.90;;;;;;5028380;28;23039;-85
2022/08/16 07:40:26;;;;;;;16.95;14.88;;;22.70;99.90;;;;;;4989048;28;20042;-84
2022/08/16 07:42:52;;;;;;;16.25;13.43;;;22.80;99.90;;;;;;5027726;28;20269;-85
2022/08/16 07:45:22;;;;;;;14.70;13.15;;;22.90;99.90;;;;;;5008555;28;20539;-84
2022/08/16 07:47:47;;;;;;;14.13;12.65;;;22.90;20.80;;;;;;4994114;28;20487;-85
2022/08/16 07:50:15;;;;;;;13.70;12.07;;;23.10;99.90;;;;;;4985824;28;20068;-85
2022/08/16 07:52:41;;;;;;;13.63;12.20;;;23.20;1.00;;;;;;5014341;28;20132;-85
2022/08/16 07:55:09;;;;;;;13.98;12.43;;;23.20;1.00;;;;;;5012402;28;20587;-85
2022/08/16 07:57:35;;;;;;;13.02;10.55;;;23.30;1.00;;;;;;5004442;28;20056;-85
2022/08/16 08:00:01;;;;;;;15.77;11.50;;;23.50;1.00;;;;;;4983410;28;20030;-85
2022/08/16 08:02:27;;;;;;;12.30;11.07;;;23.60;1.00;;;;;;5009306;28;20304;-84
2022/08/16 08:04:54;;;;;;;12.30;11.10;;;23.50;1.00;;;;;;4989956;28;20116;-84
2022/08/16 08:07:20;;;;;;;15.00;12.27;;;23.60;1.00;;;;;;5003337;28;20045;-84
2022/08/16 08:09:46;;;;;;;12.95;10.82;;;23.60;99.90;;;;;;5012610;28;20045;-84
2022/08/16 08:12:13;;;;;;;14.30;11.05;;;23.70;99.90;;;;;;5012250;28;20416;-85
2022/08/16 08:14:38;;;;;;;11.38;10.27;;;23.80;99.90;;;;;;5040913;28;20052;-86
2022/08/16 08:17:06;;;;;;;11.75;10.18;;;24.00;99.90;;;;;;5028089;28;20038;-85
2022/08/16 08:19:36;;;;;;;11.77;9.70;;;24.10;99.90;;;;;;5018988;28;20073;-84
2022/08/16 08:22:05;;;;;;;13.45;9.48;;;24.00;99.90;;;;;;5007222;28;20501;-85
2022/08/16 08:24:36;;;;;;;11.48;10.13;;;24.10;99.90;;;;;;5008893;28;20109;-86
2022/08/16 08:27:04;;;;;;;11.23;9.95;;;24.10;99.90;;;;;;4997781;28;20061;-85
2022/08/16 08:29:30;;;;;;;11.15;10.05;;;24.30;99.90;;;;;;5021564;28;20437;-86
2022/08/16 08:31:56;;;;;;;11.55;10.27;;;24.40;99.90;;;;;;5005545;28;20033;-84
2022/08/16 08:34:26;;;;;;;9.60;8.48;;;24.40;99.90;;;;;;5016869;28;20052;-85
2022/08/16 08:36:52;;;;;;;11.65;9.73;;;24.60;99.90;;;;;;5024380;28;20041;-86
2022/08/16 08:39:17;;;;;;;12.10;9.48;;;24.60;99.90;;;;;;5029467;28;20152;-85
2022/08/16 08:41:44;;;;;;;10.63;9.52;;;24.70;99.90;;;;;;5009327;28;20355;-85
2022/08/16 08:44:10;;;;;;;10.73;9.63;;;24.70;99.90;;;;;;4994400;28;20033;-86
2022/08/16 08:46:36;;;;;;;11.82;10.10;;;24.80;99.90;;;;;;5033700;28;20046;-85
2022/08/16 08:49:02;;;;;;;11.63;9.65;;;24.90;99.90;;;;;;5033286;28;20046;-86
2022/08/16 08:51:29;;;;;;;10.82;9.20;;;24.90;99.90;;;;;;4988626;28;20037;-86
2022/08/16 08:53:55;;;;;;;11.55;10.35;;;25.10;99.90;;;;;;5031158;28;20395;-86
2022/08/16 08:56:21;;;;;;;11.90;9.52;;;25.00;99.90;;;;;;5036184;28;20044;-85
2022/08/16 08:58:46;;;;;;;10.68;9.57;;;25.30;99.90;;;;;;5019622;28;20054;-84
2022/08/16 09:01:12;;;;;;;10.13;8.73;;;25.40;99.90;;;;;;5020286;28;20034;-86
2022/08/16 09:03:39;;;;;;;9.80;8.20;;;25.60;76.10;;;;;;4990087;28;20054;-85
2022/08/16 09:06:07;;;;;;;9.82;8.20;;;25.60;99.90;;;;;;4996018;28;20038;-85
2022/08/16 09:08:33;;;;;;;9.02;8.13;;;25.60;79.20;;;;;;4994927;28;20088;-85
2022/08/16 09:10:59;;;;;;;8.55;7.70;;;25.60;1.00;;;;;;5002883;28;20062;-85
2022/08/16 09:13:26;;;;;;;11.25;7.15;;;25.80;1.00;;;;;;5038051;28;20064;-85
2022/08/16 09:15:54;;;;;;;10.77;7.75;;;25.80;1.00;;;;;;4993969;28;20587;-86
2022/08/16 09:18:22;;;;;;;7.78;6.97;;;26.00;1.00;;;;;;5041326;28;20204;-84
2022/08/16 09:20:51;;;;;;;7.85;7.15;;;26.10;1.00;;;;;;5009793;28;20042;-85
2022/08/16 09:23:17;;;;;;;8.07;7.13;;;26.10;1.00;;;;;;5022542;28;20168;-84
2022/08/16 09:25:43;;;;;;;10.43;6.90;;;26.10;1.00;;;;;;4996904;28;20053;-85
2022/08/16 09:28:09;;;;;;;7.60;6.90;;;26.20;99.90;;;;;;5029594;28;20693;-85
2022/08/16 09:30:35;;;;;;;7.10;6.25;;;26.20;99.90;;;;;;5002819;28;20037;-85
2022/08/16 09:33:03;;;;;;;6.22;5.63;;;26.40;99.90;;;;;;5030184;28;20401;-85
2022/08/16 09:35:28;;;;;;;6.65;5.70;;;26.50;99.90;;;;;;5009534;28;20037;-85
2022/08/16 09:37:56;;;;;;;8.00;5.75;;;26.70;99.90;;;;;;5019632;28;20428;-85
2022/08/16 09:40:22;;;;;;;5.82;5.32;;;26.80;99.90;;;;;;5028911;28;20498;-85
2022/08/16 09:42:49;;;;;;;7.43;5.68;;;26.70;99.90;;;;;;5012435;28;20041;-85
2022/08/16 09:45:15;;;;;;;6.18;5.10;;;26.80;99.90;;;;;;5015901;28;20043;-85
2022/08/16 09:47:41;;;;;;;8.35;6.22;;;26.80;99.90;;;;;;5024689;28;20065;-85
2022/08/16 09:50:10;;;;;;;7.88;5.32;;;26.70;99.90;;;;;;4989727;28;20054;-85
2022/08/16 09:52:37;;;;;;;7.28;5.47;;;26.90;99.90;;;;;;5009461;28;20124;-85
2022/08/16 09:55:09;;;;;;;9.48;5.78;;;27.10;99.90;;;;;;4990577;28;20030;-85
2022/08/16 09:57:36;;;;;;;7.35;5.78;;;27.20;99.90;;;;;;5013109;28;20045;-85
2022/08/16 10:00:08;;;;;;;9.98;5.78;;;27.00;99.90;;;;;;5015734;28;20469;-86
2022/08/16 10:02:35;;;;;;;6.25;5.20;;;27.40;99.90;;;;;;5009641;28;20062;-84
2022/08/16 10:05:01;;;;;;;6.65;5.20;;;27.50;99.90;;;;;;5003133;28;20140;-85
2022/08/16 10:07:29;;;;;;;7.93;5.38;;;27.40;99.90;;;;;;5037117;28;20393;-85
2022/08/16 10:09:55;;;;;;;7.47;5.43;;;27.40;99.90;;;;;;5001425;28;20034;-84
2022/08/16 10:15:07;;;;;;;8.33;6.17;;;27.90;99.90;;;;;;5025629;28;20057;-85
2022/08/16 10:17:34;;;;;;;11.45;5.88;;;27.90;99.90;;;;;;4993747;28;20408;-85
2022/08/16 10:20:00;;;;;;;6.28;5.68;;;28.00;99.90;;;;;;4992860;28;20125;-84
2022/08/16 10:22:26;;;;;;;10.50;6.18;;;27.90;99.90;;;;;;4998620;28;20125;-85
2022/08/16 10:24:52;;;;;;;7.13;5.82;;;27.80;99.90;;;;;;5003297;28;20037;-85
2022/08/16 10:27:19;;;;;;;6.85;6.10;;;27.90;99.90;;;;;;5002511;28;20664;-84
2022/08/16 10:29:46;;;;;;;6.80;5.75;;;27.70;99.90;;;;;;5031035;28;20045;-85
2022/08/16 10:32:11;;;;;;;9.80;6.00;;;27.80;99.90;;;;;;5015660;28;20042;-85
2022/08/16 10:34:37;;;;;;;13.50;6.15;;;28.20;99.90;;;;;;4995844;28;20045;-85
2022/08/16 10:37:03;;;;;;;7.30;5.28;;;28.20;99.90;;;;;;4993991;28;20119;-86
2022/08/16 10:39:29;;;;;;;10.05;6.20;;;28.10;99.90;;;;;;4994809;28;20046;-85
2022/08/16 10:41:54;;;;;;;6.75;5.90;;;28.10;99.90;;;;;;5016099;28;20088;-85
2022/08/16 10:44:20;;;;;;;7.38;6.20;;;28.30;99.90;;;;;;5005717;28;20025;-84
2022/08/16 10:46:46;;;;;;;6.68;6.03;;;28.20;99.90;;;;;;5020327;28;20041;-85
2022/08/16 10:49:12;;;;;;;8.60;6.13;;;28.20;93.50;;;;;;5019666;28;20125;-85
2022/08/16 10:51:39;;;;;;;7.70;6.50;;;28.30;97.50;;;;;;5041942;28;20050;-86
2022/08/16 10:54:05;;;;;;;7.35;6.50;;;28.60;96.40;;;;;;5011788;28;20466;-85
2022/08/16 10:56:32;;;;;;;8.32;6.13;;;28.40;94.30;;;;;;5018308;28;20077;-85
2022/08/16 10:58:58;;;;;;;7.20;6.50;;;28.70;99.70;;;;;;5013097;28;20045;-85
2022/08/16 11:01:24;;;;;;;7.90;5.60;;;28.60;99.90;;;;;;5044458;28;20096;-86
2022/08/16 11:03:52;;;;;;;7.30;6.22;;;28.80;99.90;;;;;;5041097;28;20137;-85
2022/08/16 11:06:19;;;;;;;9.88;6.70;;;28.90;70.60;;;;;;5009035;28;20045;-84
2022/08/16 11:08:44;;;;;;;6.93;6.05;;;29.00;50.60;;;;;;5040533;28;20050;-85
2022/08/16 11:11:12;;;;;;;8.88;6.60;;;29.20;62.00;;;;;;5010225;28;20037;-85
2022/08/16 11:13:38;;;;;;;9.23;7.25;;;29.20;56.00;;;;;;5008857;28;20073;-85
2022/08/16 11:16:04;;;;;;;7.25;6.00;;;29.30;34.90;;;;;;5026567;28;20088;-86
2022/08/16 11:18:30;;;;;;;9.07;6.35;;;29.30;49.50;;;;;;5021997;28;20696;-85
2022/08/16 11:20:57;;;;;;;8.35;7.10;;;29.60;60.40;;;;;;5028116;28;20099;-85
2022/08/16 11:23:24;;;;;;;8.07;6.20;;;29.10;12.90;;;;;;5027755;28;20141;-85
2022/08/16 11:25:53;;;;;;;8.57;7.57;;;29.70;32.60;;;;;;4998529;28;20026;-86
2022/08/16 11:28:20;;;;;;;7.80;6.97;;;29.60;22.40;;;;;;5004737;28;20044;-84
2022/08/16 11:30:46;;;;;;;9.80;7.60;;;29.70;36.70;;;;;;4991422;28;20554;-85
2022/08/16 11:33:12;;;;;;;8.75;6.95;;;29.50;3.50;;;;;;5000373;28;20129;-85
2022/08/16 11:35:40;;;;;;;8.30;6.38;;;29.50;5.50;;;;;;5024643;28;20046;-85
2022/08/16 11:38:09;;;;;;;9.05;7.18;;;30.00;25.30;;;;;;5028934;28;20041;-84
2022/08/16 11:40:49;;;;;;;10.57;6.63;;;30.20;14.60;;;;;;5017012;28;20041;-85
2022/08/16 11:43:17;;;;;;;7.43;6.72;;;30.10;1.00;;;;;;5002628;28;20533;-85
2022/08/16 11:45:45;;;;;;;8.60;5.82;;;30.30;1.00;;;;;;5014397;28;20126;-84
2022/08/16 11:48:11;;;;;;;12.20;8.15;;;30.50;8.70;;;;;;5026268;28;20477;-85
2022/08/16 11:50:36;;;;;;;10.52;7.22;;;30.10;1.00;;;;;;4997544;28;20046;-84
2022/08/16 11:53:04;;;;;;;6.55;5.95;;;30.60;16.00;;;;;;5013300;28;20465;-84
2022/08/16 11:55:31;;;;;;;11.70;8.13;;;30.70;1.70;;;;;;4996796;28;20404;-84
2022/08/16 11:57:58;;;;;;;8.25;7.45;;;30.40;1.00;;;;;;4981497;28;20528;-85
2022/08/16 12:00:25;;;;;;;8.73;7.03;;;30.80;1.00;;;;;;5021448;28;20049;-83
2022/08/16 12:02:50;;;;;;;8.30;7.32;;;30.90;1.00;;;;;;5013655;28;20046;-85
2022/08/16 12:05:16;;;;;;;9.52;6.68;;;31.40;1.00;;;;;;5010040;28;20040;-85
2022/08/16 12:07:43;;;;;;;11.20;7.80;;;31.30;1.00;;;;;;5013481;28;20452;-82
2022/08/16 12:10:13;;;;;;;10.75;7.10;;;31.00;1.00;;;;;;4990471;28;20042;-83
2022/08/16 12:12:40;;;;;;;10.15;7.68;;;31.30;1.00;;;;;;4987729;28;20494;-83
2022/08/16 12:15:07;;;;;;;9.25;7.55;;;30.70;1.00;;;;;;5030143;28;20168;-85
2022/08/16 12:17:33;;;;;;;6.53;5.88;;;31.10;1.00;;;;;;5016194;28;20123;-84
2022/08/16 12:20:01;;;;;;;10.80;5.88;;;30.90;1.00;;;;;;4991432;28;20812;-84
2022/08/16 12:22:27;;;;;;;6.72;5.78;;;31.40;1.00;;;;;;5005271;28;20484;-83
2022/08/16 12:24:53;;;;;;;9.98;6.75;;;31.80;1.00;;;;;;5029998;28;20041;-85
2022/08/16 12:27:24;;;;;;;10.57;5.10;;;31.60;1.00;;;;;;5034929;28;20053;-85
2022/08/16 12:29:51;;;;;;;7.38;5.45;;;30.90;1.00;;;;;;4997564;28;20049;-85
2022/08/16 12:32:17;;;;;;;7.50;4.93;;;30.70;1.00;;;;;;4998658;28;20123;-84
2022/08/16 12:34:42;;;;;;;8.07;5.30;;;31.30;1.00;;;;;;4986377;28;20382;-84
2022/08/16 12:37:08;;;;;;;8.57;5.20;;;31.50;1.00;;;;;;4994745;28;20041;-84